sensor_id;sensor_type;location;lat;lon;timestamp;P1;durP1;ratioP1;P2;durP2;ratioP2
37303;SDS011;23188;51.188;16.374;2022-11-20T00:02:18;24.85;;;15.20;;
37303;SDS011;23188;51.188;16.374;2022-11-20T00:06:20;20.35;;;15.20;;
37303;SDS011;23188;51.188;16.374;2022-11-20T00:10:23;21.57;;;15.83;;
37303;SDS011;23188;51.188;16.374;2022-11-20T00:14:24;26.55;;;17.30;;
37303;SDS011;23188;51.188;16.374;2022-11-20T00:18:26;23.87;;;19.20;;
37303;SDS011;23188;51.188;16.374;2022-11-20T00:22:28;24.75;;;17.77;;
37303;SDS011;23188;51.188;16.374;2022-11-20T00:26:29;27.62;;;17.65;;
37303;SDS011;23188;51.188;16.374;2022-11-20T00:30:31;33.78;;;17.05;;
37303;SDS011;23188;51.188;16.374;2022-11-20T00:34:32;33.73;;;18.17;;
37303;SDS011;23188;51.188;16.374;2022-11-20T00:38:34;30.65;;;21.82;;
37303;SDS011;23188;51.188;16.374;2022-11-20T00:42:36;28.52;;;19.05;;
37303;SDS011;23188;51.188;16.374;2022-11-20T00:46:38;26.12;;;16.90;;
37303;SDS011;23188;51.188;16.374;2022-11-20T00:50:40;29.85;;;18.75;;
37303;SDS011;23188;51.188;16.374;2022-11-20T00:54:42;45.33;;;28.42;;
37303;SDS011;23188;51.188;16.374;2022-11-20T00:58:44;40.15;;;28.50;;
37303;SDS011;23188;51.188;16.374;2022-11-20T01:02:48;44.93;;;23.10;;
37303;SDS011;23188;51.188;16.374;2022-11-20T01:06:49;46.68;;;25.68;;
37303;SDS011;23188;51.188;16.374;2022-11-20T01:10:50;29.27;;;19.23;;
37303;SDS011;23188;51.188;16.374;2022-11-20T01:14:51;27.37;;;18.42;;
37303;SDS011;23188;51.188;16.374;2022-11-20T01:19:01;40.90;;;17.95;;
37303;SDS011;23188;51.188;16.374;2022-11-20T01:23:06;33.40;;;20.10;;
37303;SDS011;23188;51.188;16.374;2022-11-20T01:27:07;43.45;;;26.42;;
37303;SDS011;23188;51.188;16.374;2022-11-20T01:35:23;37.00;;;23.57;;
37303;SDS011;23188;51.188;16.374;2022-11-20T01:39:25;39.45;;;22.52;;
37303;SDS011;23188;51.188;16.374;2022-11-20T01:43:27;40.03;;;21.10;;
37303;SDS011;23188;51.188;16.374;2022-11-20T01:47:36;36.60;;;22.17;;
37303;SDS011;23188;51.188;16.374;2022-11-20T01:51:51;39.33;;;23.75;;
37303;SDS011;23188;51.188;16.374;2022-11-20T01:56:00;41.30;;;26.10;;
37303;SDS011;23188;51.188;16.374;2022-11-20T02:00:08;40.73;;;25.72;;
37303;SDS011;23188;51.188;16.374;2022-11-20T02:04:13;40.40;;;24.77;;
37303;SDS011;23188;51.188;16.374;2022-11-20T02:08:16;42.73;;;25.02;;
37303;SDS011;23188;51.188;16.374;2022-11-20T02:12:19;45.58;;;27.52;;
37303;SDS011;23188;51.188;16.374;2022-11-20T02:16:39;42.78;;;28.55;;
37303;SDS011;23188;51.188;16.374;2022-11-20T02:20:48;49.27;;;28.92;;
37303;SDS011;23188;51.188;16.374;2022-11-20T02:24:53;40.83;;;24.47;;
37303;SDS011;23188;51.188;16.374;2022-11-20T02:28:55;42.67;;;26.40;;
37303;SDS011;23188;51.188;16.374;2022-11-20T02:32:59;33.78;;;22.02;;
37303;SDS011;23188;51.188;16.374;2022-11-20T02:37:00;35.63;;;22.20;;
37303;SDS011;23188;51.188;16.374;2022-11-20T02:41:02;36.33;;;20.35;;
37303;SDS011;23188;51.188;16.374;2022-11-20T02:45:04;27.22;;;16.70;;
37303;SDS011;23188;51.188;16.374;2022-11-20T02:49:07;36.28;;;18.30;;
37303;SDS011;23188;51.188;16.374;2022-11-20T02:53:08;29.92;;;17.07;;
37303;SDS011;23188;51.188;16.374;2022-11-20T02:57:09;29.82;;;18.87;;
37303;SDS011;23188;51.188;16.374;2022-11-20T03:01:11;27.13;;;16.15;;
37303;SDS011;23188;51.188;16.374;2022-11-20T03:05:12;30.32;;;16.37;;
37303;SDS011;23188;51.188;16.374;2022-11-20T03:09:14;23.57;;;14.58;;
37303;SDS011;23188;51.188;16.374;2022-11-20T03:13:15;26.75;;;15.83;;
37303;SDS011;23188;51.188;16.374;2022-11-20T03:17:16;23.18;;;15.90;;
37303;SDS011;23188;51.188;16.374;2022-11-20T03:21:18;23.45;;;14.07;;
37303;SDS011;23188;51.188;16.374;2022-11-20T03:25:19;21.05;;;13.15;;
37303;SDS011;23188;51.188;16.374;2022-11-20T03:29:20;22.60;;;14.60;;
37303;SDS011;23188;51.188;16.374;2022-11-20T03:33:22;25.25;;;13.88;;
37303;SDS011;23188;51.188;16.374;2022-11-20T03:37:23;20.37;;;12.98;;
37303;SDS011;23188;51.188;16.374;2022-11-20T03:41:25;26.20;;;16.10;;
37303;SDS011;23188;51.188;16.374;2022-11-20T03:45:29;20.62;;;12.30;;
37303;SDS011;23188;51.188;16.374;2022-11-20T03:49:31;22.87;;;12.68;;
37303;SDS011;23188;51.188;16.374;2022-11-20T03:53:32;24.02;;;15.65;;
37303;SDS011;23188;51.188;16.374;2022-11-20T03:57:33;35.10;;;21.48;;
37303;SDS011;23188;51.188;16.374;2022-11-20T04:01:35;29.27;;;16.65;;
37303;SDS011;23188;51.188;16.374;2022-11-20T04:05:40;41.17;;;22.60;;
37303;SDS011;23188;51.188;16.374;2022-11-20T04:09:41;38.35;;;24.05;;
37303;SDS011;23188;51.188;16.374;2022-11-20T04:13:45;50.88;;;28.57;;
37303;SDS011;23188;51.188;16.374;2022-11-20T04:17:55;45.08;;;25.90;;
37303;SDS011;23188;51.188;16.374;2022-11-20T04:21:56;32.40;;;19.80;;
37303;SDS011;23188;51.188;16.374;2022-11-20T04:26:02;34.53;;;20.65;;
37303;SDS011;23188;51.188;16.374;2022-11-20T04:30:09;33.95;;;20.10;;
37303;SDS011;23188;51.188;16.374;2022-11-20T04:34:11;25.05;;;15.30;;
37303;SDS011;23188;51.188;16.374;2022-11-20T04:38:13;24.80;;;18.20;;
37303;SDS011;23188;51.188;16.374;2022-11-20T04:42:14;29.07;;;19.15;;
37303;SDS011;23188;51.188;16.374;2022-11-20T04:46:31;29.82;;;18.32;;
37303;SDS011;23188;51.188;16.374;2022-11-20T04:50:39;22.90;;;14.43;;
37303;SDS011;23188;51.188;16.374;2022-11-20T04:54:41;29.85;;;18.45;;
37303;SDS011;23188;51.188;16.374;2022-11-20T04:58:42;23.65;;;17.05;;
37303;SDS011;23188;51.188;16.374;2022-11-20T05:02:43;25.08;;;14.83;;
37303;SDS011;23188;51.188;16.374;2022-11-20T05:06:45;22.27;;;14.63;;
37303;SDS011;23188;51.188;16.374;2022-11-20T05:10:46;30.95;;;15.90;;
37303;SDS011;23188;51.188;16.374;2022-11-20T05:14:47;28.52;;;17.32;;
37303;SDS011;23188;51.188;16.374;2022-11-20T05:18:49;24.65;;;12.23;;
37303;SDS011;23188;51.188;16.374;2022-11-20T05:22:55;26.07;;;14.07;;
37303;SDS011;23188;51.188;16.374;2022-11-20T05:26:58;24.85;;;13.88;;
37303;SDS011;23188;51.188;16.374;2022-11-20T05:35:11;35.40;;;20.50;;
37303;SDS011;23188;51.188;16.374;2022-11-20T05:39:12;31.40;;;18.55;;
37303;SDS011;23188;51.188;16.374;2022-11-20T05:43:14;28.15;;;15.90;;
37303;SDS011;23188;51.188;16.374;2022-11-20T05:47:15;21.87;;;15.35;;
37303;SDS011;23188;51.188;16.374;2022-11-20T05:51:17;21.07;;;13.13;;
37303;SDS011;23188;51.188;16.374;2022-11-20T05:55:20;21.97;;;12.25;;
37303;SDS011;23188;51.188;16.374;2022-11-20T05:59:21;28.32;;;16.12;;
37303;SDS011;23188;51.188;16.374;2022-11-20T06:03:22;25.25;;;13.32;;
37303;SDS011;23188;51.188;16.374;2022-11-20T06:07:24;24.85;;;15.58;;
37303;SDS011;23188;51.188;16.374;2022-11-20T06:11:25;25.60;;;16.95;;
37303;SDS011;23188;51.188;16.374;2022-11-20T06:15:26;26.75;;;14.50;;
37303;SDS011;23188;51.188;16.374;2022-11-20T06:19:28;23.77;;;12.53;;
37303;SDS011;23188;51.188;16.374;2022-11-20T06:23:29;32.20;;;16.55;;
37303;SDS011;23188;51.188;16.374;2022-11-20T06:27:32;26.10;;;17.42;;
37303;SDS011;23188;51.188;16.374;2022-11-20T06:31:34;28.25;;;19.90;;
37303;SDS011;23188;51.188;16.374;2022-11-20T06:35:37;34.88;;;22.15;;
37303;SDS011;23188;51.188;16.374;2022-11-20T06:39:38;32.98;;;19.67;;
37303;SDS011;23188;51.188;16.374;2022-11-20T06:43:40;32.40;;;18.45;;
37303;SDS011;23188;51.188;16.374;2022-11-20T06:47:41;29.18;;;17.65;;
37303;SDS011;23188;51.188;16.374;2022-11-20T06:51:42;28.75;;;18.20;;
37303;SDS011;23188;51.188;16.374;2022-11-20T06:55:44;31.15;;;18.40;;
37303;SDS011;23188;51.188;16.374;2022-11-20T06:59:47;32.75;;;19.07;;
37303;SDS011;23188;51.188;16.374;2022-11-20T07:03:48;26.85;;;16.65;;
37303;SDS011;23188;51.188;16.374;2022-11-20T07:07:51;32.55;;;17.05;;
37303;SDS011;23188;51.188;16.374;2022-11-20T07:11:53;33.58;;;18.10;;
37303;SDS011;23188;51.188;16.374;2022-11-20T07:15:54;35.60;;;18.62;;
37303;SDS011;23188;51.188;16.374;2022-11-20T07:19:56;33.13;;;19.57;;
37303;SDS011;23188;51.188;16.374;2022-11-20T07:23:57;49.93;;;23.20;;
37303;SDS011;23188;51.188;16.374;2022-11-20T07:27:59;36.20;;;20.95;;
37303;SDS011;23188;51.188;16.374;2022-11-20T07:32:01;28.50;;;18.20;;
37303;SDS011;23188;51.188;16.374;2022-11-20T07:36:02;33.10;;;18.82;;
37303;SDS011;23188;51.188;16.374;2022-11-20T07:40:05;21.52;;;14.60;;
37303;SDS011;23188;51.188;16.374;2022-11-20T07:44:06;35.70;;;25.43;;
37303;SDS011;23188;51.188;16.374;2022-11-20T07:48:08;41.25;;;22.62;;
37303;SDS011;23188;51.188;16.374;2022-11-20T07:52:09;47.08;;;28.25;;
37303;SDS011;23188;51.188;16.374;2022-11-20T07:56:10;39.75;;;25.85;;
37303;SDS011;23188;51.188;16.374;2022-11-20T08:00:12;37.63;;;22.02;;
37303;SDS011;23188;51.188;16.374;2022-11-20T08:04:14;39.45;;;27.50;;
37303;SDS011;23188;51.188;16.374;2022-11-20T08:08:16;51.25;;;31.35;;
37303;SDS011;23188;51.188;16.374;2022-11-20T08:12:18;36.30;;;20.75;;
37303;SDS011;23188;51.188;16.374;2022-11-20T08:16:40;29.67;;;18.87;;
37303;SDS011;23188;51.188;16.374;2022-11-20T08:20:47;29.80;;;19.77;;
37303;SDS011;23188;51.188;16.374;2022-11-20T08:24:48;31.52;;;21.77;;
37303;SDS011;23188;51.188;16.374;2022-11-20T08:28:52;39.42;;;23.57;;
37303;SDS011;23188;51.188;16.374;2022-11-20T08:33:03;28.00;;;20.97;;
37303;SDS011;23188;51.188;16.374;2022-11-20T08:37:09;22.48;;;17.32;;
37303;SDS011;23188;51.188;16.374;2022-11-20T08:41:10;33.33;;;20.35;;
37303;SDS011;23188;51.188;16.374;2022-11-20T08:45:28;23.38;;;16.00;;
37303;SDS011;23188;51.188;16.374;2022-11-20T08:49:29;21.37;;;16.20;;
37303;SDS011;23188;51.188;16.374;2022-11-20T08:53:31;25.43;;;16.55;;
37303;SDS011;23188;51.188;16.374;2022-11-20T09:01:44;25.32;;;17.10;;
37303;SDS011;23188;51.188;16.374;2022-11-20T09:05:45;23.73;;;13.83;;
37303;SDS011;23188;51.188;16.374;2022-11-20T09:09:46;23.70;;;15.72;;
37303;SDS011;23188;51.188;16.374;2022-11-20T09:13:48;24.25;;;14.45;;
37303;SDS011;23188;51.188;16.374;2022-11-20T09:17:54;23.83;;;15.88;;
37303;SDS011;23188;51.188;16.374;2022-11-20T09:21:55;29.12;;;18.80;;
37303;SDS011;23188;51.188;16.374;2022-11-20T09:25:56;29.42;;;20.35;;
37303;SDS011;23188;51.188;16.374;2022-11-20T09:30:02;26.45;;;17.95;;
37303;SDS011;23188;51.188;16.374;2022-11-20T09:34:04;23.07;;;15.48;;
37303;SDS011;23188;51.188;16.374;2022-11-20T09:38:06;25.62;;;14.58;;
37303;SDS011;23188;51.188;16.374;2022-11-20T09:42:22;34.25;;;17.95;;
37303;SDS011;23188;51.188;16.374;2022-11-20T09:46:43;35.38;;;22.32;;
37303;SDS011;23188;51.188;16.374;2022-11-20T09:50:58;28.42;;;16.17;;
37303;SDS011;23188;51.188;16.374;2022-11-20T09:55:18;29.87;;;19.37;;
37303;SDS011;23188;51.188;16.374;2022-11-20T09:59:36;37.65;;;18.25;;
37303;SDS011;23188;51.188;16.374;2022-11-20T10:08:24;38.50;;;24.72;;
37303;SDS011;23188;51.188;16.374;2022-11-20T10:26:02;28.47;;;20.27;;
37303;SDS011;23188;51.188;16.374;2022-11-20T10:30:25;28.92;;;17.87;;
37303;SDS011;23188;51.188;16.374;2022-11-20T10:34:39;53.23;;;28.60;;
37303;SDS011;23188;51.188;16.374;2022-11-20T10:38:47;40.88;;;25.97;;
37303;SDS011;23188;51.188;16.374;2022-11-20T10:42:56;53.08;;;35.10;;
37303;SDS011;23188;51.188;16.374;2022-11-20T10:46:59;53.65;;;29.48;;
37303;SDS011;23188;51.188;16.374;2022-11-20T10:55:40;39.18;;;23.18;;
37303;SDS011;23188;51.188;16.374;2022-11-20T11:03:59;42.35;;;27.05;;
37303;SDS011;23188;51.188;16.374;2022-11-20T11:08:00;38.45;;;24.30;;
37303;SDS011;23188;51.188;16.374;2022-11-20T11:12:08;44.38;;;28.65;;
37303;SDS011;23188;51.188;16.374;2022-11-20T11:16:23;40.40;;;26.95;;
37303;SDS011;23188;51.188;16.374;2022-11-20T11:20:26;36.57;;;25.37;;
37303;SDS011;23188;51.188;16.374;2022-11-20T11:24:29;39.35;;;28.12;;
37303;SDS011;23188;51.188;16.374;2022-11-20T11:28:31;32.23;;;21.60;;
37303;SDS011;23188;51.188;16.374;2022-11-20T11:32:33;35.25;;;21.15;;
37303;SDS011;23188;51.188;16.374;2022-11-20T11:36:34;28.57;;;18.15;;
37303;SDS011;23188;51.188;16.374;2022-11-20T11:40:36;33.63;;;19.90;;
37303;SDS011;23188;51.188;16.374;2022-11-20T11:44:43;25.77;;;16.48;;
37303;SDS011;23188;51.188;16.374;2022-11-20T11:49:22;32.85;;;19.57;;
37303;SDS011;23188;51.188;16.374;2022-11-20T11:53:23;25.12;;;18.00;;
37303;SDS011;23188;51.188;16.374;2022-11-20T12:01:51;31.27;;;17.55;;
37303;SDS011;23188;51.188;16.374;2022-11-20T12:06:12;26.23;;;17.07;;
37303;SDS011;23188;51.188;16.374;2022-11-20T12:14:37;30.73;;;17.53;;
37303;SDS011;23188;51.188;16.374;2022-11-20T12:18:42;30.00;;;20.27;;
37303;SDS011;23188;51.188;16.374;2022-11-20T12:22:48;30.62;;;19.57;;
37303;SDS011;23188;51.188;16.374;2022-11-20T12:27:01;23.75;;;15.38;;
37303;SDS011;23188;51.188;16.374;2022-11-20T12:35:58;26.93;;;17.70;;
37303;SDS011;23188;51.188;16.374;2022-11-20T12:53:34;22.75;;;15.95;;
37303;SDS011;23188;51.188;16.374;2022-11-20T13:06:47;30.72;;;16.90;;
37303;SDS011;23188;51.188;16.374;2022-11-20T13:10:51;24.12;;;15.30;;
37303;SDS011;23188;51.188;16.374;2022-11-20T13:19:12;27.17;;;17.50;;
37303;SDS011;23188;51.188;16.374;2022-11-20T13:23:23;27.52;;;18.90;;
37303;SDS011;23188;51.188;16.374;2022-11-20T13:27:26;28.17;;;17.02;;
37303;SDS011;23188;51.188;16.374;2022-11-20T13:31:31;21.30;;;16.23;;
37303;SDS011;23188;51.188;16.374;2022-11-20T13:35:36;27.00;;;17.40;;
37303;SDS011;23188;51.188;16.374;2022-11-20T13:39:42;29.67;;;19.05;;
37303;SDS011;23188;51.188;16.374;2022-11-20T13:43:44;28.60;;;17.40;;
37303;SDS011;23188;51.188;16.374;2022-11-20T13:47:49;29.90;;;17.48;;
37303;SDS011;23188;51.188;16.374;2022-11-20T13:51:56;28.45;;;17.57;;
37303;SDS011;23188;51.188;16.374;2022-11-20T13:56:08;26.77;;;18.82;;
37303;SDS011;23188;51.188;16.374;2022-11-20T14:00:27;38.45;;;23.00;;
37303;SDS011;23188;51.188;16.374;2022-11-20T14:04:29;29.05;;;19.87;;
37303;SDS011;23188;51.188;16.374;2022-11-20T14:08:41;34.58;;;18.48;;
37303;SDS011;23188;51.188;16.374;2022-11-20T14:12:47;26.85;;;17.15;;
37303;SDS011;23188;51.188;16.374;2022-11-20T14:16:49;22.93;;;17.62;;
37303;SDS011;23188;51.188;16.374;2022-11-20T14:20:55;22.15;;;16.40;;
37303;SDS011;23188;51.188;16.374;2022-11-20T14:25:05;33.15;;;19.10;;
37303;SDS011;23188;51.188;16.374;2022-11-20T14:33:26;27.82;;;18.85;;
37303;SDS011;23188;51.188;16.374;2022-11-20T14:37:30;34.18;;;21.30;;
37303;SDS011;23188;51.188;16.374;2022-11-20T14:41:34;30.68;;;19.05;;
37303;SDS011;23188;51.188;16.374;2022-11-20T14:45:36;31.77;;;20.20;;
37303;SDS011;23188;51.188;16.374;2022-11-20T14:49:43;34.45;;;20.72;;
37303;SDS011;23188;51.188;16.374;2022-11-20T14:53:50;33.10;;;19.85;;
37303;SDS011;23188;51.188;16.374;2022-11-20T14:57:56;38.28;;;25.37;;
37303;SDS011;23188;51.188;16.374;2022-11-20T15:02:02;41.90;;;25.08;;
37303;SDS011;23188;51.188;16.374;2022-11-20T15:06:11;39.38;;;25.57;;
37303;SDS011;23188;51.188;16.374;2022-11-20T15:10:26;43.45;;;25.15;;
37303;SDS011;23188;51.188;16.374;2022-11-20T15:14:28;36.20;;;24.35;;
37303;SDS011;23188;51.188;16.374;2022-11-20T15:18:36;38.48;;;23.40;;
37303;SDS011;23188;51.188;16.374;2022-11-20T15:22:44;31.17;;;21.42;;
37303;SDS011;23188;51.188;16.374;2022-11-20T15:26:45;39.45;;;22.60;;
37303;SDS011;23188;51.188;16.374;2022-11-20T15:30:50;31.68;;;20.88;;
37303;SDS011;23188;51.188;16.374;2022-11-20T15:34:52;42.50;;;23.85;;
37303;SDS011;23188;51.188;16.374;2022-11-20T15:38:53;37.50;;;21.77;;
37303;SDS011;23188;51.188;16.374;2022-11-20T15:42:55;38.98;;;20.85;;
37303;SDS011;23188;51.188;16.374;2022-11-20T15:47:07;35.28;;;21.52;;
37303;SDS011;23188;51.188;16.374;2022-11-20T15:55:26;34.33;;;21.60;;
37303;SDS011;23188;51.188;16.374;2022-11-20T15:59:27;36.95;;;21.68;;
37303;SDS011;23188;51.188;16.374;2022-11-20T16:03:29;36.53;;;21.50;;
37303;SDS011;23188;51.188;16.374;2022-11-20T16:07:30;27.70;;;18.90;;
37303;SDS011;23188;51.188;16.374;2022-11-20T16:11:32;33.58;;;22.02;;
37303;SDS011;23188;51.188;16.374;2022-11-20T16:15:36;34.20;;;20.75;;
37303;SDS011;23188;51.188;16.374;2022-11-20T16:19:47;38.70;;;26.52;;
37303;SDS011;23188;51.188;16.374;2022-11-20T16:23:48;45.78;;;29.30;;
37303;SDS011;23188;51.188;16.374;2022-11-20T16:27:50;47.08;;;30.40;;
37303;SDS011;23188;51.188;16.374;2022-11-20T16:31:51;46.30;;;28.75;;
37303;SDS011;23188;51.188;16.374;2022-11-20T16:35:52;45.83;;;27.50;;
37303;SDS011;23188;51.188;16.374;2022-11-20T16:39:54;42.70;;;24.90;;
37303;SDS011;23188;51.188;16.374;2022-11-20T16:43:57;36.23;;;21.12;;
37303;SDS011;23188;51.188;16.374;2022-11-20T16:48:00;24.45;;;19.62;;
37303;SDS011;23188;51.188;16.374;2022-11-20T16:52:03;26.93;;;15.25;;
37303;SDS011;23188;51.188;16.374;2022-11-20T16:56:12;28.92;;;14.85;;
37303;SDS011;23188;51.188;16.374;2022-11-20T17:00:13;25.43;;;16.07;;
37303;SDS011;23188;51.188;16.374;2022-11-20T17:04:15;23.90;;;14.75;;
37303;SDS011;23188;51.188;16.374;2022-11-20T17:08:17;20.72;;;13.13;;
37303;SDS011;23188;51.188;16.374;2022-11-20T17:12:19;21.35;;;14.68;;
37303;SDS011;23188;51.188;16.374;2022-11-20T17:16:22;21.77;;;14.30;;
37303;SDS011;23188;51.188;16.374;2022-11-20T17:20:24;28.73;;;17.62;;
37303;SDS011;23188;51.188;16.374;2022-11-20T17:24:25;19.87;;;12.98;;
37303;SDS011;23188;51.188;16.374;2022-11-20T17:28:27;21.45;;;15.43;;
37303;SDS011;23188;51.188;16.374;2022-11-20T17:32:28;29.80;;;14.80;;
37303;SDS011;23188;51.188;16.374;2022-11-20T17:36:30;20.20;;;14.00;;
37303;SDS011;23188;51.188;16.374;2022-11-20T17:40:32;25.62;;;13.45;;
37303;SDS011;23188;51.188;16.374;2022-11-20T17:44:33;30.30;;;14.63;;
37303;SDS011;23188;51.188;16.374;2022-11-20T17:48:34;23.45;;;13.30;;
37303;SDS011;23188;51.188;16.374;2022-11-20T17:52:36;20.35;;;13.93;;
37303;SDS011;23188;51.188;16.374;2022-11-20T17:56:38;27.07;;;14.55;;
37303;SDS011;23188;51.188;16.374;2022-11-20T18:01:03;26.12;;;19.57;;
37303;SDS011;23188;51.188;16.374;2022-11-20T18:05:08;27.80;;;17.67;;
37303;SDS011;23188;51.188;16.374;2022-11-20T18:09:10;26.10;;;17.55;;
37303;SDS011;23188;51.188;16.374;2022-11-20T18:17:21;32.90;;;21.27;;
37303;SDS011;23188;51.188;16.374;2022-11-20T18:21:23;32.85;;;22.25;;
37303;SDS011;23188;51.188;16.374;2022-11-20T18:25:26;34.95;;;23.85;;
37303;SDS011;23188;51.188;16.374;2022-11-20T18:29:28;38.33;;;24.27;;
37303;SDS011;23188;51.188;16.374;2022-11-20T18:33:31;40.17;;;24.92;;
37303;SDS011;23188;51.188;16.374;2022-11-20T18:37:33;40.48;;;26.35;;
37303;SDS011;23188;51.188;16.374;2022-11-20T18:41:35;44.05;;;26.95;;
37303;SDS011;23188;51.188;16.374;2022-11-20T18:46:05;42.70;;;24.52;;
37303;SDS011;23188;51.188;16.374;2022-11-20T18:50:05;41.00;;;25.48;;
37303;SDS011;23188;51.188;16.374;2022-11-20T18:54:09;35.38;;;22.48;;
37303;SDS011;23188;51.188;16.374;2022-11-20T18:58:12;38.35;;;21.27;;
37303;SDS011;23188;51.188;16.374;2022-11-20T19:02:29;39.25;;;21.33;;
37303;SDS011;23188;51.188;16.374;2022-11-20T19:06:30;38.53;;;24.85;;
37303;SDS011;23188;51.188;16.374;2022-11-20T19:10:31;47.35;;;28.42;;
37303;SDS011;23188;51.188;16.374;2022-11-20T19:14:33;50.08;;;30.35;;
37303;SDS011;23188;51.188;16.374;2022-11-20T19:18:34;65.42;;;38.67;;
37303;SDS011;23188;51.188;16.374;2022-11-20T19:22:49;51.33;;;31.30;;
37303;SDS011;23188;51.188;16.374;2022-11-20T19:26:51;62.90;;;34.40;;
37303;SDS011;23188;51.188;16.374;2022-11-20T19:30:55;60.33;;;34.45;;
37303;SDS011;23188;51.188;16.374;2022-11-20T19:35:05;53.33;;;33.38;;
37303;SDS011;23188;51.188;16.374;2022-11-20T19:39:08;51.13;;;31.05;;
37303;SDS011;23188;51.188;16.374;2022-11-20T19:43:16;45.73;;;26.75;;
37303;SDS011;23188;51.188;16.374;2022-11-20T19:47:17;41.23;;;29.12;;
37303;SDS011;23188;51.188;16.374;2022-11-20T19:51:22;44.77;;;29.90;;
37303;SDS011;23188;51.188;16.374;2022-11-20T19:55:30;50.88;;;25.77;;
37303;SDS011;23188;51.188;16.374;2022-11-20T19:59:38;45.20;;;24.52;;
37303;SDS011;23188;51.188;16.374;2022-11-20T20:03:39;40.48;;;23.07;;
37303;SDS011;23188;51.188;16.374;2022-11-20T20:07:41;47.33;;;22.60;;
37303;SDS011;23188;51.188;16.374;2022-11-20T20:11:52;31.70;;;20.37;;
37303;SDS011;23188;51.188;16.374;2022-11-20T20:15:54;36.63;;;21.55;;
37303;SDS011;23188;51.188;16.374;2022-11-20T20:24:04;34.48;;;22.42;;
37303;SDS011;23188;51.188;16.374;2022-11-20T20:28:06;41.13;;;24.60;;
37303;SDS011;23188;51.188;16.374;2022-11-20T20:32:07;36.83;;;24.30;;
37303;SDS011;23188;51.188;16.374;2022-11-20T20:36:10;38.78;;;22.65;;
37303;SDS011;23188;51.188;16.374;2022-11-20T20:44:21;40.70;;;20.20;;
37303;SDS011;23188;51.188;16.374;2022-11-20T20:48:52;40.78;;;23.60;;
37303;SDS011;23188;51.188;16.374;2022-11-20T20:52:53;39.88;;;22.75;;
37303;SDS011;23188;51.188;16.374;2022-11-20T20:56:56;39.83;;;21.57;;
37303;SDS011;23188;51.188;16.374;2022-11-20T21:01:13;37.45;;;21.95;;
37303;SDS011;23188;51.188;16.374;2022-11-20T21:05:16;30.25;;;19.85;;
37303;SDS011;23188;51.188;16.374;2022-11-20T21:13:24;37.42;;;23.45;;
37303;SDS011;23188;51.188;16.374;2022-11-20T21:17:27;34.25;;;22.87;;
37303;SDS011;23188;51.188;16.374;2022-11-20T21:21:35;41.10;;;23.38;;
37303;SDS011;23188;51.188;16.374;2022-11-20T21:25:55;37.38;;;22.73;;
37303;SDS011;23188;51.188;16.374;2022-11-20T21:29:59;41.98;;;24.80;;
37303;SDS011;23188;51.188;16.374;2022-11-20T21:34:00;30.95;;;23.80;;
37303;SDS011;23188;51.188;16.374;2022-11-20T21:38:04;38.17;;;24.55;;
37303;SDS011;23188;51.188;16.374;2022-11-20T21:42:05;36.10;;;23.45;;
37303;SDS011;23188;51.188;16.374;2022-11-20T21:46:07;33.25;;;22.35;;
37303;SDS011;23188;51.188;16.374;2022-11-20T21:50:11;44.53;;;24.15;;
37303;SDS011;23188;51.188;16.374;2022-11-20T21:54:12;39.48;;;23.45;;
37303;SDS011;23188;51.188;16.374;2022-11-20T21:58:14;35.38;;;24.27;;
37303;SDS011;23188;51.188;16.374;2022-11-20T22:02:15;35.48;;;25.17;;
37303;SDS011;23188;51.188;16.374;2022-11-20T22:06:17;34.85;;;23.27;;
37303;SDS011;23188;51.188;16.374;2022-11-20T22:10:20;38.58;;;23.18;;
37303;SDS011;23188;51.188;16.374;2022-11-20T22:14:21;40.45;;;23.47;;
37303;SDS011;23188;51.188;16.374;2022-11-20T22:18:24;40.73;;;22.15;;
37303;SDS011;23188;51.188;16.374;2022-11-20T22:22:25;33.63;;;21.75;;
37303;SDS011;23188;51.188;16.374;2022-11-20T22:26:40;39.80;;;22.82;;
37303;SDS011;23188;51.188;16.374;2022-11-20T22:30:42;35.03;;;21.42;;
37303;SDS011;23188;51.188;16.374;2022-11-20T22:39:10;61.75;;;37.55;;
37303;SDS011;23188;51.188;16.374;2022-11-20T22:43:19;55.80;;;29.05;;
37303;SDS011;23188;51.188;16.374;2022-11-20T22:47:22;51.30;;;31.35;;
37303;SDS011;23188;51.188;16.374;2022-11-20T22:51:33;47.80;;;29.90;;
37303;SDS011;23188;51.188;16.374;2022-11-20T22:55:39;58.00;;;28.50;;
37303;SDS011;23188;51.188;16.374;2022-11-20T22:59:42;53.65;;;27.98;;
37303;SDS011;23188;51.188;16.374;2022-11-20T23:03:46;49.23;;;30.08;;
37303;SDS011;23188;51.188;16.374;2022-11-20T23:11:51;51.48;;;32.88;;
37303;SDS011;23188;51.188;16.374;2022-11-20T23:15:53;55.23;;;31.82;;
37303;SDS011;23188;51.188;16.374;2022-11-20T23:24:30;59.50;;;32.08;;
37303;SDS011;23188;51.188;16.374;2022-11-20T23:28:33;54.48;;;30.05;;
37303;SDS011;23188;51.188;16.374;2022-11-20T23:32:35;51.88;;;32.50;;
37303;SDS011;23188;51.188;16.374;2022-11-20T23:40:47;43.70;;;24.10;;
37303;SDS011;23188;51.188;16.374;2022-11-20T23:44:52;32.80;;;20.83;;
37303;SDS011;23188;51.188;16.374;2022-11-20T23:48:53;41.45;;;23.30;;
37303;SDS011;23188;51.188;16.374;2022-11-20T23:52:54;45.35;;;22.62;;
37303;SDS011;23188;51.188;16.374;2022-11-20T23:56:55;43.58;;;22.15;;
